createdAt,value
2016-12-20T00:00:07.982Z,0
2016-12-20T00:01:16.552Z,0
2016-12-20T00:02:25.436Z,0
2016-12-20T00:03:34.332Z,0
2016-12-20T00:04:43.532Z,0
2016-12-20T00:05:52.208Z,0
2016-12-20T00:07:00.779Z,0
2016-12-20T00:08:10.303Z,0
2016-12-20T00:09:19.201Z,0
2016-12-20T00:10:28.727Z,0
2016-12-20T00:11:37.400Z,0
2016-12-20T00:12:45.974Z,0
2016-12-20T00:13:54.859Z,0
2016-12-20T00:15:03.428Z,0
2016-12-20T00:16:11.995Z,0
2016-12-20T00:17:20.611Z,0
2016-12-20T00:18:29.817Z,0
2016-12-20T00:19:39.337Z,0
2016-12-20T00:20:47.906Z,0
2016-12-20T00:21:56.475Z,0
2016-12-20T00:23:05.737Z,0
2016-12-20T00:24:14.628Z,0
2016-12-20T00:25:23.205Z,0
2016-12-20T00:26:31.772Z,0
2016-12-20T00:27:40.977Z,0
2016-12-20T00:28:50.228Z,0
2016-12-20T00:29:59.123Z,0
2016-12-20T00:31:08.332Z,0
2016-12-20T00:32:16.906Z,0
2016-12-20T00:33:26.136Z,0
2016-12-20T00:34:34.808Z,0
2016-12-20T00:35:43.695Z,0
2016-12-20T00:36:52.579Z,0
2016-12-20T00:38:01.149Z,0
2016-12-20T00:39:10.033Z,0
2016-12-20T00:40:19.221Z,0
2016-12-20T00:41:27.785Z,0
2016-12-20T00:42:36.353Z,0
2016-12-20T00:43:44.922Z,0
2016-12-20T00:44:53.500Z,0
2016-12-20T00:46:02.231Z,0
2016-12-20T00:47:10.796Z,0
2016-12-20T00:48:19.687Z,0
2016-12-20T00:49:28.258Z,0
2016-12-20T00:50:37.468Z,0
2016-12-20T00:51:46.408Z,0
2016-12-20T00:52:55.295Z,0
2016-12-20T00:54:04.180Z,0
2016-12-20T00:55:13.068Z,0
2016-12-20T00:56:22.274Z,0
2016-12-20T00:57:30.893Z,0
2016-12-20T00:58:40.116Z,0
2016-12-20T00:59:48.686Z,0
2016-12-20T01:00:57.577Z,0
2016-12-20T01:02:06.461Z,0
2016-12-20T01:03:15.378Z,0
2016-12-20T01:04:23.947Z,0
2016-12-20T01:05:32.522Z,0
2016-12-20T01:06:41.416Z,0
2016-12-20T01:07:50.310Z,0
2016-12-20T01:08:59.246Z,0
2016-12-20T01:10:08.135Z,0
2016-12-20T01:11:17.025Z,0
2016-12-20T01:12:25.596Z,0
2016-12-20T01:13:34.165Z,0
2016-12-20T01:14:43.098Z,0
2016-12-20T01:15:52.302Z,0
2016-12-20T01:17:01.194Z,0
2016-12-20T01:18:09.788Z,0
2016-12-20T01:19:18.353Z,0
2016-12-20T01:20:26.973Z,0
2016-12-20T01:21:35.539Z,0
2016-12-20T01:22:44.749Z,0
2016-12-20T01:23:53.668Z,0
2016-12-20T01:25:02.242Z,0
2016-12-20T01:26:11.183Z,0
2016-12-20T01:27:20.073Z,0
2016-12-20T01:28:29.282Z,0
2016-12-20T01:29:37.850Z,0
2016-12-20T01:30:46.739Z,0
2016-12-20T01:31:55.680Z,0
2016-12-20T01:33:04.255Z,0
2016-12-20T01:34:12.826Z,0
2016-12-20T01:35:21.714Z,0
2016-12-20T01:36:30.282Z,0
2016-12-20T01:37:38.898Z,0
2016-12-20T01:38:47.473Z,0
2016-12-20T01:39:56.361Z,0
2016-12-20T01:41:04.932Z,0
2016-12-20T01:42:13.497Z,0
2016-12-20T01:43:22.531Z,0
2016-12-20T01:44:31.092Z,0
2016-12-20T01:45:39.984Z,0
2016-12-20T01:46:48.552Z,0
2016-12-20T01:47:57.123Z,0
2016-12-20T01:49:06.777Z,0
2016-12-20T01:50:15.664Z,0
2016-12-20T01:51:24.232Z,0
2016-12-20T01:52:32.796Z,0
2016-12-20T01:53:41.362Z,0
2016-12-20T01:54:50.335Z,0
2016-12-20T01:55:58.905Z,0
2016-12-20T01:57:07.797Z,0
2016-12-20T01:58:16.682Z,0
2016-12-20T01:59:25.245Z,0
2016-12-20T02:00:33.861Z,0
2016-12-20T02:01:42.425Z,0
2016-12-20T02:02:50.994Z,0
2016-12-20T02:03:59.566Z,0
2016-12-20T02:05:08.478Z,0
2016-12-20T02:06:17.423Z,0
2016-12-20T02:07:26.006Z,0
2016-12-20T02:08:34.605Z,0
2016-12-20T02:09:43.495Z,0
2016-12-20T02:10:52.066Z,0
2016-12-20T02:12:00.687Z,0
2016-12-20T02:13:09.260Z,0
2016-12-20T02:14:18.465Z,0
2016-12-20T02:15:27.348Z,0
2016-12-20T02:16:36.240Z,0
2016-12-20T02:17:44.864Z,0
2016-12-20T02:18:54.075Z,0
2016-12-20T02:20:02.980Z,0
2016-12-20T02:21:11.553Z,0
2016-12-20T02:22:20.124Z,0
2016-12-20T02:23:28.831Z,0
2016-12-20T02:24:37.775Z,0
2016-12-20T02:25:46.705Z,0
2016-12-20T02:26:55.944Z,0
2016-12-20T02:28:04.860Z,0
2016-12-20T02:29:14.120Z,0
2016-12-20T02:30:22.700Z,0
2016-12-20T02:31:31.289Z,0
2016-12-20T02:32:40.508Z,0
2016-12-20T02:33:49.095Z,0
2016-12-20T02:34:57.722Z,0
2016-12-20T02:36:06.616Z,0
2016-12-20T02:37:15.517Z,0
2016-12-20T02:38:24.428Z,0
2016-12-20T02:39:33.011Z,0
2016-12-20T02:40:42.361Z,0
2016-12-20T02:41:50.944Z,0
2016-12-20T02:42:59.518Z,0
2016-12-20T02:44:08.113Z,0
2016-12-20T02:45:16.707Z,0
2016-12-20T02:46:25.644Z,0
2016-12-20T02:47:34.243Z,0
2016-12-20T02:48:43.509Z,0
2016-12-20T02:49:53.049Z,0
2016-12-20T02:51:01.989Z,0
2016-12-20T02:52:10.941Z,0
2016-12-20T02:53:19.844Z,0
2016-12-20T02:54:28.744Z,0
2016-12-20T02:55:37.628Z,0
2016-12-20T02:56:46.210Z,0
2016-12-20T02:57:54.886Z,0
2016-12-20T02:59:04.098Z,0
2016-12-20T03:00:13.309Z,0
2016-12-20T03:01:21.895Z,0
2016-12-20T03:02:30.784Z,0
2016-12-20T03:03:39.426Z,0
2016-12-20T03:04:48.323Z,0
2016-12-20T03:05:56.889Z,0
2016-12-20T03:07:05.525Z,0
2016-12-20T03:08:14.119Z,0
2016-12-20T03:09:23.377Z,0
2016-12-20T03:10:32.313Z,0
2016-12-20T03:11:40.902Z,0
2016-12-20T03:12:49.483Z,0
2016-12-20T03:13:58.386Z,0
2016-12-20T03:15:07.320Z,0
2016-12-20T03:16:15.925Z,0
2016-12-20T03:17:24.509Z,0
2016-12-20T03:18:33.091Z,0
2016-12-20T03:19:41.679Z,0
2016-12-20T03:20:50.619Z,0
2016-12-20T03:21:59.530Z,0
2016-12-20T03:23:08.426Z,0
2016-12-20T03:24:17.341Z,0
2016-12-20T03:25:26.563Z,0
2016-12-20T03:26:35.846Z,0
2016-12-20T03:27:44.747Z,0
2016-12-20T03:28:53.968Z,0
2016-12-20T03:30:02.551Z,0
2016-12-20T03:31:11.453Z,0
2016-12-20T03:32:20.766Z,0
2016-12-20T03:33:29.673Z,0
2016-12-20T03:34:38.571Z,0
2016-12-20T03:35:47.463Z,0
2016-12-20T03:36:56.356Z,0
2016-12-20T03:38:04.931Z,0
2016-12-20T03:39:13.527Z,0
2016-12-20T03:40:22.429Z,0
2016-12-20T03:41:31.003Z,0
2016-12-20T03:42:39.912Z,0
2016-12-20T03:43:48.863Z,0
2016-12-20T03:44:57.428Z,0
2016-12-20T03:46:06.330Z,0
2016-12-20T03:47:15.227Z,0
2016-12-20T03:48:24.144Z,0
2016-12-20T03:49:32.756Z,0
2016-12-20T03:50:41.657Z,0
2016-12-20T03:51:50.243Z,0
2016-12-20T03:52:58.816Z,0
2016-12-20T03:54:07.401Z,0
2016-12-20T03:55:16.403Z,0
2016-12-20T03:56:25.339Z,0
2016-12-20T03:57:33.923Z,0
2016-12-20T03:58:42.831Z,0
2016-12-20T03:59:51.411Z,0
2016-12-20T04:01:00.988Z,0
2016-12-20T04:02:09.572Z,0
2016-12-20T04:03:18.467Z,0
2016-12-20T04:04:27.035Z,0
2016-12-20T04:05:36.269Z,0
2016-12-20T04:06:45.278Z,0
2016-12-20T04:07:53.845Z,0
2016-12-20T04:09:02.425Z,0
2016-12-20T04:10:11.336Z,0
2016-12-20T04:11:20.594Z,0
2016-12-20T04:12:29.222Z,0
2016-12-20T04:13:38.111Z,0
2016-12-20T04:14:47.331Z,0
2016-12-20T04:15:56.235Z,0
2016-12-20T04:17:04.829Z,0
2016-12-20T04:18:13.797Z,0
2016-12-20T04:19:22.689Z,0
2016-12-20T04:20:31.908Z,0
2016-12-20T04:21:40.488Z,0
2016-12-20T04:22:49.748Z,0
2016-12-20T04:23:58.708Z,0
2016-12-20T04:25:07.302Z,0
2016-12-20T04:26:15.894Z,0
2016-12-20T04:27:24.481Z,0
2016-12-20T04:28:33.716Z,0
2016-12-20T04:29:42.655Z,0
2016-12-20T04:30:52.220Z,0
2016-12-20T04:32:00.804Z,0
2016-12-20T04:33:09.720Z,0
2016-12-20T04:34:18.947Z,0
2016-12-20T04:35:27.591Z,0
2016-12-20T04:36:36.481Z,0
2016-12-20T04:37:45.068Z,0
2016-12-20T04:38:53.954Z,0
2016-12-20T04:40:02.849Z,0
2016-12-20T04:41:11.782Z,0
2016-12-20T04:42:20.358Z,0
2016-12-20T04:43:28.979Z,0
2016-12-20T04:44:37.870Z,0
2016-12-20T04:45:46.770Z,0
2016-12-20T04:46:55.423Z,0
2016-12-20T04:48:04.327Z,0
2016-12-20T04:49:12.899Z,0
2016-12-20T04:50:21.478Z,0
2016-12-20T04:51:30.383Z,0
2016-12-20T04:52:39.045Z,0
2016-12-20T04:53:47.617Z,0
2016-12-20T04:54:56.526Z,0
2016-12-20T04:56:05.119Z,0
2016-12-20T04:57:14.033Z,0
2016-12-20T04:58:22.993Z,0
2016-12-20T04:59:31.581Z,0
2016-12-20T05:00:40.160Z,0
2016-12-20T05:01:49.057Z,0
2016-12-20T05:02:57.975Z,0
2016-12-20T05:04:07.365Z,0
2016-12-20T05:05:15.934Z,0
2016-12-20T05:06:25.171Z,0
2016-12-20T05:07:34.392Z,0
2016-12-20T05:08:43.639Z,0
2016-12-20T05:09:52.598Z,0
2016-12-20T05:11:01.164Z,0
2016-12-20T05:12:09.737Z,0
2016-12-20T05:13:18.632Z,0
2016-12-20T05:14:27.527Z,0
2016-12-20T05:15:36.468Z,0
2016-12-20T05:16:45.041Z,0
2016-12-20T05:17:53.923Z,0
2016-12-20T05:19:02.501Z,0
2016-12-20T05:20:11.080Z,0
2016-12-20T05:21:20.347Z,0
2016-12-20T05:22:28.942Z,0
2016-12-20T05:23:38.162Z,0
2016-12-20T05:24:47.081Z,0
2016-12-20T05:25:56.323Z,0
2016-12-20T05:27:04.999Z,0
2016-12-20T05:28:14.230Z,0
2016-12-20T05:29:22.850Z,0
2016-12-20T05:30:31.427Z,0
2016-12-20T05:31:40.025Z,0
2016-12-20T05:32:49.337Z,0
2016-12-20T05:33:58.241Z,0
2016-12-20T05:35:06.817Z,0
2016-12-20T05:36:16.077Z,0
2016-12-20T05:37:24.957Z,0
2016-12-20T05:38:33.626Z,0
2016-12-20T05:39:42.526Z,0
2016-12-20T05:40:51.099Z,0
2016-12-20T05:42:00.316Z,0
2016-12-20T05:43:09.227Z,0
2016-12-20T05:44:18.273Z,0
2016-12-20T05:45:26.858Z,0
2016-12-20T05:46:35.430Z,0
2016-12-20T05:47:44.009Z,0
2016-12-20T05:48:52.572Z,0
2016-12-20T05:50:02.166Z,0
2016-12-20T05:51:11.073Z,0
2016-12-20T05:52:19.650Z,0
2016-12-20T05:53:28.554Z,0
2016-12-20T05:54:37.145Z,0
2016-12-20T05:55:45.765Z,0
2016-12-20T05:56:54.365Z,0
2016-12-20T05:58:02.953Z,0
2016-12-20T05:59:11.862Z,0
2016-12-20T06:00:20.764Z,0
2016-12-20T06:01:29.701Z,0
2016-12-20T06:02:38.582Z,0
2016-12-20T06:03:47.472Z,0
2016-12-20T06:04:56.048Z,0
2016-12-20T06:06:04.968Z,0
2016-12-20T06:07:13.699Z,0
2016-12-20T06:08:22.606Z,0
2016-12-20T06:09:31.504Z,0
2016-12-20T06:10:40.083Z,0
2016-12-20T06:11:48.678Z,0
2016-12-20T06:12:57.646Z,0
2016-12-20T06:14:06.226Z,0
2016-12-20T06:15:14.803Z,0
2016-12-20T06:16:23.700Z,0
2016-12-20T06:17:32.600Z,0
2016-12-20T06:18:41.279Z,0
2016-12-20T06:19:50.508Z,0
2016-12-20T06:20:59.396Z,0
2016-12-20T06:22:08.310Z,0
2016-12-20T06:23:17.233Z,0
2016-12-20T06:24:26.178Z,0
2016-12-20T06:25:34.758Z,0
2016-12-20T06:26:43.988Z,0
2016-12-20T06:27:52.590Z,0
2016-12-20T06:29:01.523Z,0
2016-12-20T06:30:10.202Z,0
2016-12-20T06:31:18.782Z,0
2016-12-20T06:32:27.685Z,0
2016-12-20T06:33:36.590Z,0
2016-12-20T06:34:45.166Z,0
2016-12-20T06:35:54.486Z,0
2016-12-20T06:37:03.074Z,0
2016-12-20T06:38:11.661Z,0
2016-12-20T06:39:20.875Z,0
2016-12-20T06:40:29.471Z,0
2016-12-20T06:41:38.085Z,0
2016-12-20T06:42:46.679Z,0
2016-12-20T06:43:55.591Z,0
2016-12-20T06:45:04.487Z,0
2016-12-20T06:46:13.070Z,0
2016-12-20T06:47:22.635Z,0
2016-12-20T06:48:31.215Z,0
2016-12-20T06:49:40.749Z,0
2016-12-20T06:50:49.335Z,0
2016-12-20T06:51:57.924Z,0
2016-12-20T06:53:06.877Z,0
2016-12-20T06:54:15.478Z,0
2016-12-20T06:55:24.058Z,0
2016-12-20T06:56:33.290Z,0
2016-12-20T06:57:41.861Z,0
2016-12-20T06:58:50.802Z,0
2016-12-20T06:59:59.682Z,0
2016-12-20T07:01:08.253Z,4
2016-12-20T07:02:16.827Z,0
2016-12-20T07:03:25.724Z,0
2016-12-20T07:04:34.662Z,4
2016-12-20T07:05:43.565Z,4
2016-12-20T07:06:52.793Z,4
2016-12-20T07:08:01.692Z,4
2016-12-20T07:09:10.265Z,4
2016-12-20T07:10:19.860Z,4
2016-12-20T07:11:28.470Z,4
2016-12-20T07:12:37.385Z,8
2016-12-20T07:13:45.977Z,8
2016-12-20T07:14:54.886Z,8
2016-12-20T07:16:04.258Z,12
2016-12-20T07:17:12.874Z,12
2016-12-20T07:18:22.106Z,12
2016-12-20T07:19:31.027Z,12
2016-12-20T07:20:39.684Z,16
2016-12-20T07:21:48.696Z,16
2016-12-20T07:22:57.305Z,24
2016-12-20T07:24:05.889Z,24
2016-12-20T07:25:14.479Z,28
2016-12-20T07:26:23.406Z,32
2016-12-20T07:27:32.092Z,36
2016-12-20T07:28:41.001Z,40
2016-12-20T07:29:49.895Z,44
2016-12-20T07:30:58.489Z,48
2016-12-20T07:32:07.072Z,56
2016-12-20T07:33:16.417Z,60
2016-12-20T07:34:25.639Z,68
2016-12-20T07:35:34.226Z,76
2016-12-20T07:36:43.453Z,84
2016-12-20T07:37:52.353Z,88
2016-12-20T07:39:01.025Z,100
2016-12-20T07:40:09.683Z,104
2016-12-20T07:41:18.939Z,112
2016-12-20T07:42:27.873Z,124
2016-12-20T07:43:37.081Z,132
2016-12-20T07:44:45.724Z,144
2016-12-20T07:45:54.319Z,152
2016-12-20T07:47:03.559Z,164
2016-12-20T07:48:12.464Z,172
2016-12-20T07:49:21.680Z,188
2016-12-20T07:50:30.374Z,204
2016-12-20T07:51:38.977Z,220
2016-12-20T07:52:47.570Z,248
2016-12-20T07:53:56.152Z,268
2016-12-20T07:55:05.057Z,272
2016-12-20T07:56:13.691Z,296
2016-12-20T07:57:22.291Z,276
2016-12-20T07:58:31.200Z,304
2016-12-20T07:59:40.096Z,308
2016-12-20T08:00:49.646Z,336
2016-12-20T08:01:58.287Z,348
2016-12-20T08:03:07.190Z,360
2016-12-20T08:04:16.092Z,380
2016-12-20T08:05:24.990Z,400
2016-12-20T08:06:33.894Z,428
2016-12-20T08:07:43.170Z,428
2016-12-20T08:08:52.071Z,436
2016-12-20T08:10:00.656Z,436
2016-12-20T08:11:09.559Z,480
2016-12-20T08:12:18.470Z,492
2016-12-20T08:13:27.407Z,508
2016-12-20T08:14:35.995Z,540
2016-12-20T08:15:44.899Z,568
2016-12-20T08:16:54.113Z,572
2016-12-20T08:18:02.728Z,596
2016-12-20T08:19:12.042Z,640
2016-12-20T08:20:20.962Z,680
2016-12-20T08:21:29.545Z,712
2016-12-20T08:22:38.120Z,720
2016-12-20T08:23:47.022Z,744
2016-12-20T08:24:56.012Z,760
2016-12-20T08:26:04.605Z,764
2016-12-20T08:27:13.516Z,816
2016-12-20T08:28:22.410Z,840
2016-12-20T08:29:31.640Z,896
2016-12-20T08:30:40.908Z,860
2016-12-20T08:31:49.484Z,928
2016-12-20T08:32:58.069Z,1024
2016-12-20T08:34:06.976Z,1012
2016-12-20T08:35:15.557Z,1112
2016-12-20T08:36:24.582Z,1100
2016-12-20T08:37:33.474Z,1108
2016-12-20T08:38:42.058Z,1200
2016-12-20T08:39:50.642Z,1176
2016-12-20T08:40:59.213Z,1200
2016-12-20T08:42:08.175Z,1184
2016-12-20T08:43:17.085Z,1276
2016-12-20T08:44:25.656Z,1372
2016-12-20T08:45:34.558Z,1500
2016-12-20T08:46:43.445Z,1584
2016-12-20T08:47:52.407Z,1680
2016-12-20T08:49:01.301Z,1700
2016-12-20T08:50:10.530Z,1540
2016-12-20T08:51:19.434Z,1600
2016-12-20T08:52:28.029Z,1472
2016-12-20T08:53:36.702Z,1540
2016-12-20T08:54:45.616Z,1568
2016-12-20T08:55:54.530Z,1488
2016-12-20T08:57:03.433Z,1512
2016-12-20T08:58:12.342Z,1596
2016-12-20T08:59:21.294Z,1780
2016-12-20T09:00:30.194Z,1840
2016-12-20T09:01:38.782Z,1712
2016-12-20T09:02:47.674Z,1800
2016-12-20T09:03:56.254Z,1868
2016-12-20T09:05:05.198Z,1776
2016-12-20T09:06:14.116Z,1724
2016-12-20T09:07:22.696Z,1684
2016-12-20T09:08:31.924Z,1716
2016-12-20T09:09:40.827Z,1680
2016-12-20T09:10:50.100Z,1776
2016-12-20T09:11:59.335Z,1828
2016-12-20T09:13:08.561Z,1968
2016-12-20T09:14:17.478Z,2060
2016-12-20T09:15:26.384Z,2136
2016-12-20T09:16:35.008Z,1996
2016-12-20T09:17:43.578Z,1988
2016-12-20T09:18:52.494Z,2120
2016-12-20T09:20:01.415Z,2016
2016-12-20T09:21:10.338Z,1996
2016-12-20T09:22:19.365Z,2032
2016-12-20T09:23:27.942Z,2132
2016-12-20T09:24:36.846Z,2040
2016-12-20T09:25:46.061Z,2060
2016-12-20T09:26:55.281Z,2036
2016-12-20T09:28:04.320Z,2052
2016-12-20T09:29:13.225Z,2236
2016-12-20T09:30:22.126Z,2648
2016-12-20T09:31:31.022Z,2780
2016-12-20T09:32:39.602Z,2316
2016-12-20T09:33:48.288Z,2288
2016-12-20T09:34:57.203Z,2184
2016-12-20T09:36:06.106Z,2324
2016-12-20T09:37:15.317Z,2328
2016-12-20T09:38:24.537Z,2416
2016-12-20T09:39:33.168Z,2552
2016-12-20T09:40:41.750Z,2456
2016-12-20T09:41:50.655Z,2624
2016-12-20T09:42:59.555Z,2968
2016-12-20T09:44:08.461Z,3020
2016-12-20T09:45:17.719Z,3068
2016-12-20T09:46:26.313Z,3088
2016-12-20T09:47:34.888Z,2892
2016-12-20T09:48:44.113Z,2928
2016-12-20T09:49:52.694Z,3136
2016-12-20T09:51:01.326Z,2980
2016-12-20T09:52:09.908Z,2936
2016-12-20T09:53:18.818Z,2848
2016-12-20T09:54:28.044Z,2888
2016-12-20T09:55:36.933Z,2824
2016-12-20T09:56:45.619Z,2984
2016-12-20T09:57:54.188Z,3068
2016-12-20T09:59:02.784Z,2920
2016-12-20T10:00:11.354Z,2856
2016-12-20T10:01:19.936Z,3056
2016-12-20T10:02:28.570Z,2948
2016-12-20T10:03:37.484Z,2980
2016-12-20T10:04:46.075Z,3004
2016-12-20T10:05:54.994Z,3064
2016-12-20T10:07:03.891Z,3004
2016-12-20T10:08:13.255Z,3188
2016-12-20T10:09:22.476Z,2996
2016-12-20T10:10:31.379Z,2920
2016-12-20T10:11:39.951Z,2896
2016-12-20T10:12:48.541Z,2876
2016-12-20T10:13:57.882Z,3096
2016-12-20T10:15:06.786Z,3132
2016-12-20T10:16:15.373Z,3096
2016-12-20T10:17:24.593Z,3280
2016-12-20T10:18:33.176Z,3296
2016-12-20T10:19:41.827Z,3356
2016-12-20T10:20:50.726Z,3152
2016-12-20T10:21:59.947Z,3172
2016-12-20T10:23:08.516Z,3540
2016-12-20T10:24:17.406Z,3468
2016-12-20T10:25:26.692Z,3652
2016-12-20T10:26:35.585Z,3344
2016-12-20T10:27:44.491Z,3452
2016-12-20T10:28:53.067Z,3624
2016-12-20T10:30:01.971Z,3476
2016-12-20T10:31:10.973Z,3596
2016-12-20T10:32:19.547Z,3876
2016-12-20T10:33:28.127Z,3808
2016-12-20T10:34:37.039Z,3852
2016-12-20T10:35:45.623Z,3552
2016-12-20T10:36:54.550Z,3436
2016-12-20T10:38:03.144Z,3704
2016-12-20T10:39:11.738Z,3452
2016-12-20T10:40:20.336Z,3596
2016-12-20T10:41:28.922Z,3528
2016-12-20T10:42:37.873Z,3796
2016-12-20T10:43:47.114Z,3784
2016-12-20T10:44:56.017Z,3812
2016-12-20T10:46:04.927Z,3672
2016-12-20T10:47:13.848Z,3704
2016-12-20T10:48:22.472Z,3488
2016-12-20T10:49:31.058Z,3712
2016-12-20T10:50:40.302Z,3592
2016-12-20T10:51:49.218Z,3788
2016-12-20T10:52:58.139Z,3744
2016-12-20T10:54:06.771Z,3516
2016-12-20T10:55:15.355Z,3808
2016-12-20T10:56:23.930Z,3696
2016-12-20T10:57:32.829Z,4060
2016-12-20T10:58:41.732Z,4604
2016-12-20T10:59:50.453Z,4500
2016-12-20T11:00:59.684Z,4496
2016-12-20T11:02:08.582Z,4712
2016-12-20T11:03:17.827Z,4916
2016-12-20T11:04:26.723Z,4544
2016-12-20T11:05:35.663Z,4372
2016-12-20T11:06:44.257Z,4584
2016-12-20T11:07:53.162Z,4644
2016-12-20T11:09:01.734Z,4832
2016-12-20T11:10:10.670Z,5076
2016-12-20T11:11:19.995Z,4528
2016-12-20T11:12:28.563Z,4520
2016-12-20T11:13:37.150Z,4980
2016-12-20T11:14:45.738Z,4796
2016-12-20T11:15:54.330Z,4364
2016-12-20T11:17:03.333Z,4640
2016-12-20T11:18:11.906Z,4032
2016-12-20T11:19:20.817Z,4204
2016-12-20T11:20:29.728Z,4148
2016-12-20T11:21:38.654Z,4136
2016-12-20T11:22:47.280Z,4052
2016-12-20T11:23:55.872Z,4068
2016-12-20T11:25:04.776Z,3612
2016-12-20T11:26:13.679Z,4228
2016-12-20T11:27:22.586Z,4284
2016-12-20T11:28:31.658Z,4020
2016-12-20T11:29:40.563Z,3784
2016-12-20T11:30:49.151Z,3508
2016-12-20T11:31:58.062Z,3768
2016-12-20T11:33:06.965Z,4120
2016-12-20T11:34:15.649Z,4352
2016-12-20T11:35:24.230Z,4612
2016-12-20T11:36:33.127Z,4568
2016-12-20T11:37:41.709Z,4604
2016-12-20T11:38:50.277Z,5016
2016-12-20T11:39:59.231Z,4592
2016-12-20T11:41:07.834Z,4596
2016-12-20T11:42:17.071Z,4072
2016-12-20T11:43:25.967Z,4224
2016-12-20T11:44:34.864Z,4068
2016-12-20T11:45:43.490Z,3808
2016-12-20T11:46:52.401Z,3348
2016-12-20T11:48:00.973Z,3196
2016-12-20T11:49:10.200Z,3436
2016-12-20T11:50:19.761Z,3860
2016-12-20T11:51:28.766Z,4076
2016-12-20T11:52:38.000Z,3940
2016-12-20T11:53:46.898Z,4064
2016-12-20T11:54:56.131Z,3992
2016-12-20T11:56:05.034Z,3684
2016-12-20T11:57:13.666Z,3316
2016-12-20T11:58:22.900Z,3400
2016-12-20T11:59:32.443Z,3308
2016-12-20T12:00:41.337Z,3252
2016-12-20T12:01:50.231Z,3064
2016-12-20T12:02:59.506Z,2836
2016-12-20T12:04:08.752Z,3188
2016-12-20T12:05:18.287Z,3248
2016-12-20T12:06:27.179Z,3620
2016-12-20T12:07:35.770Z,3736
2016-12-20T12:08:44.446Z,3616
2016-12-20T12:09:53.014Z,3360
2016-12-20T12:11:01.918Z,3420
2016-12-20T12:12:10.816Z,3508
2016-12-20T12:13:19.725Z,3328
2016-12-20T12:14:28.412Z,3280
2016-12-20T12:15:37.309Z,3348
2016-12-20T12:16:46.210Z,3500
2016-12-20T12:17:55.135Z,3376
2016-12-20T12:19:04.045Z,3464
2016-12-20T12:20:12.679Z,3116
2016-12-20T12:21:21.588Z,3104
2016-12-20T12:22:30.486Z,3080
2016-12-20T12:23:39.384Z,3340
2016-12-20T12:24:47.968Z,3188
2016-12-20T12:25:57.001Z,3176
2016-12-20T12:27:05.574Z,3320
2016-12-20T12:28:14.163Z,3076
2016-12-20T12:29:23.045Z,3228
2016-12-20T12:30:31.638Z,2804
2016-12-20T12:31:41.300Z,2896
2016-12-20T12:32:50.204Z,2872
2016-12-20T12:33:59.090Z,2952
2016-12-20T12:35:07.672Z,2936
2016-12-20T12:36:16.559Z,2668
2016-12-20T12:37:25.186Z,2460
2016-12-20T12:38:33.768Z,2492
2016-12-20T12:39:42.662Z,2696
2016-12-20T12:40:51.237Z,2412
2016-12-20T12:42:00.446Z,2568
2016-12-20T12:43:09.079Z,3176
2016-12-20T12:44:17.662Z,2532
2016-12-20T12:45:26.562Z,2440
2016-12-20T12:46:35.151Z,2388
2016-12-20T12:47:44.049Z,2524
2016-12-20T12:48:53.071Z,2596
2016-12-20T12:50:02.301Z,2536
2016-12-20T12:51:11.213Z,2412
2016-12-20T12:52:20.108Z,2360
2016-12-20T12:53:28.685Z,2372
2016-12-20T12:54:37.641Z,2328
2016-12-20T12:55:46.862Z,2224
2016-12-20T12:56:55.460Z,2400
2016-12-20T12:58:04.366Z,2356
2016-12-20T12:59:13.286Z,2264
2016-12-20T13:00:22.245Z,2360
2016-12-20T13:01:30.830Z,2524
2016-12-20T13:02:39.723Z,2388
2016-12-20T13:03:48.300Z,2456
2016-12-20T13:04:57.193Z,2232
2016-12-20T13:06:05.867Z,2392
2016-12-20T13:07:14.441Z,2488
2016-12-20T13:08:23.351Z,2332
2016-12-20T13:09:31.937Z,2348
2016-12-20T13:10:40.527Z,2424
2016-12-20T13:11:50.120Z,2264
2016-12-20T13:12:58.709Z,2528
2016-12-20T13:14:07.596Z,3108
2016-12-20T13:15:16.495Z,2592
2016-12-20T13:16:25.405Z,2212
2016-12-20T13:17:34.482Z,2204
2016-12-20T13:18:43.714Z,2352
2016-12-20T13:19:52.627Z,2252
2016-12-20T13:21:01.209Z,1916
2016-12-20T13:22:09.775Z,1808
2016-12-20T13:23:18.719Z,1828
2016-12-20T13:24:28.262Z,1876
2016-12-20T13:25:37.165Z,1872
2016-12-20T13:26:45.761Z,1952
2016-12-20T13:27:54.675Z,1976
2016-12-20T13:29:03.702Z,2124
2016-12-20T13:30:12.292Z,1980
2016-12-20T13:31:21.188Z,1872
2016-12-20T13:32:30.092Z,1872
2016-12-20T13:33:38.682Z,1912
2016-12-20T13:34:47.305Z,1796
2016-12-20T13:35:56.221Z,1904
2016-12-20T13:37:04.796Z,1856
2016-12-20T13:38:14.033Z,1932
2016-12-20T13:39:22.617Z,2108
2016-12-20T13:40:31.969Z,2076
2016-12-20T13:41:40.542Z,1996
2016-12-20T13:42:49.450Z,1900
2016-12-20T13:43:58.348Z,1860
2016-12-20T13:45:06.926Z,1888
2016-12-20T13:46:16.178Z,1752
2016-12-20T13:47:25.093Z,1740
2016-12-20T13:48:33.993Z,1788
2016-12-20T13:49:42.567Z,1744
2016-12-20T13:50:51.455Z,1892
2016-12-20T13:52:00.420Z,1816
2016-12-20T13:53:09.022Z,1720
2016-12-20T13:54:17.608Z,1572
2016-12-20T13:55:27.150Z,1608
2016-12-20T13:56:36.371Z,1596
2016-12-20T13:57:45.325Z,1584
2016-12-20T13:58:53.916Z,1548
2016-12-20T14:00:02.495Z,1628
2016-12-20T14:01:11.087Z,1596
2016-12-20T14:02:19.985Z,1560
2016-12-20T14:03:28.909Z,1496
2016-12-20T14:04:37.500Z,1444
2016-12-20T14:05:46.401Z,1416
2016-12-20T14:06:55.302Z,1352
2016-12-20T14:08:03.896Z,1388
2016-12-20T14:09:12.527Z,1400
2016-12-20T14:10:21.436Z,1360
2016-12-20T14:11:30.356Z,1376
2016-12-20T14:12:39.265Z,1468
2016-12-20T14:13:48.190Z,1480
2016-12-20T14:14:57.146Z,1504
2016-12-20T14:16:05.732Z,1428
2016-12-20T14:17:14.623Z,1432
2016-12-20T14:18:23.527Z,1460
2016-12-20T14:19:32.411Z,1364
2016-12-20T14:20:41.431Z,1316
2016-12-20T14:21:50.008Z,1372
2016-12-20T14:22:58.900Z,1296
2016-12-20T14:24:07.472Z,1268
2016-12-20T14:25:16.384Z,1196
2016-12-20T14:26:24.997Z,1136
2016-12-20T14:27:33.895Z,1128
2016-12-20T14:28:43.130Z,1036
2016-12-20T14:29:52.041Z,956
2016-12-20T14:31:00.626Z,872
2016-12-20T14:32:09.272Z,876
2016-12-20T14:33:18.168Z,872
2016-12-20T14:34:26.747Z,864
2016-12-20T14:35:35.342Z,816
2016-12-20T14:36:44.257Z,776
2016-12-20T14:37:52.944Z,740
2016-12-20T14:39:01.539Z,712
2016-12-20T14:40:10.769Z,680
2016-12-20T14:41:19.356Z,664
2016-12-20T14:42:27.943Z,628
2016-12-20T14:43:36.943Z,596
2016-12-20T14:44:45.524Z,568
2016-12-20T14:45:54.413Z,536
2016-12-20T14:47:03.006Z,496
2016-12-20T14:48:11.900Z,468
2016-12-20T14:49:20.859Z,424
2016-12-20T14:50:29.757Z,404
2016-12-20T14:51:38.977Z,388
2016-12-20T14:52:47.548Z,360
2016-12-20T14:53:56.450Z,336
2016-12-20T14:55:05.380Z,316
2016-12-20T14:56:13.962Z,324
2016-12-20T14:57:23.190Z,296
2016-12-20T14:58:31.777Z,268
2016-12-20T14:59:40.684Z,248
2016-12-20T15:00:49.950Z,228
2016-12-20T15:01:58.854Z,220
2016-12-20T15:03:07.771Z,200
2016-12-20T15:04:16.985Z,188
2016-12-20T15:05:25.579Z,168
2016-12-20T15:06:34.532Z,156
2016-12-20T15:07:43.120Z,156
2016-12-20T15:08:52.035Z,140
2016-12-20T15:10:00.928Z,128
2016-12-20T15:11:09.513Z,116
2016-12-20T15:12:18.265Z,112
2016-12-20T15:13:26.845Z,96
2016-12-20T15:14:35.748Z,84
2016-12-20T15:15:44.665Z,84
2016-12-20T15:16:53.899Z,80
2016-12-20T15:18:03.161Z,76
2016-12-20T15:19:11.760Z,68
2016-12-20T15:20:20.353Z,60
2016-12-20T15:21:29.245Z,52
2016-12-20T15:22:37.819Z,48
2016-12-20T15:23:46.768Z,48
2016-12-20T15:24:55.663Z,44
2016-12-20T15:26:04.572Z,36
2016-12-20T15:27:13.793Z,32
2016-12-20T15:28:23.318Z,28
2016-12-20T15:29:31.953Z,24
2016-12-20T15:30:41.188Z,20
2016-12-20T15:31:49.772Z,16
2016-12-20T15:32:58.665Z,16
2016-12-20T15:34:07.237Z,12
2016-12-20T15:35:16.282Z,12
2016-12-20T15:36:25.182Z,8
2016-12-20T15:37:33.751Z,8
2016-12-20T15:38:42.323Z,4
2016-12-20T15:39:51.233Z,8
2016-12-20T15:41:00.164Z,4
2016-12-20T15:42:09.077Z,4
2016-12-20T15:43:18.307Z,4
2016-12-20T15:44:27.525Z,4
2016-12-20T15:45:36.439Z,0
2016-12-20T15:46:45.721Z,4
2016-12-20T15:47:54.613Z,4
2016-12-20T15:49:03.184Z,4
2016-12-20T15:50:12.415Z,0
2016-12-20T15:51:21.966Z,0
2016-12-20T15:52:30.596Z,0
2016-12-20T15:53:39.160Z,0
2016-12-20T15:54:47.745Z,0
2016-12-20T15:55:56.335Z,0
2016-12-20T15:57:04.921Z,0
2016-12-20T15:58:13.867Z,0
2016-12-20T15:59:22.762Z,0
2016-12-20T16:00:31.351Z,0
2016-12-20T16:01:39.939Z,0
2016-12-20T16:02:48.521Z,0
2016-12-20T16:03:57.155Z,0
2016-12-20T16:05:05.735Z,0
2016-12-20T16:06:14.665Z,0
2016-12-20T16:07:23.233Z,0
2016-12-20T16:08:32.462Z,0